sensor_id;sensor_type;location;lat;lon;timestamp;P1;durP1;ratioP1;P2;durP2;ratioP2
18407;SDS011;9330;52.210;21.174;2023-02-28T00:01:46;36.42;;;20.15;;
18407;SDS011;9330;52.210;21.174;2023-02-28T00:04:14;37.72;;;21.92;;
18407;SDS011;9330;52.210;21.174;2023-02-28T00:06:41;41.28;;;22.27;;
18407;SDS011;9330;52.210;21.174;2023-02-28T00:09:08;43.65;;;23.90;;
18407;SDS011;9330;52.210;21.174;2023-02-28T00:11:35;44.67;;;23.08;;
18407;SDS011;9330;52.210;21.174;2023-02-28T00:14:03;40.03;;;22.65;;
18407;SDS011;9330;52.210;21.174;2023-02-28T00:16:30;38.90;;;22.63;;
18407;SDS011;9330;52.210;21.174;2023-02-28T00:19:10;40.03;;;21.73;;
18407;SDS011;9330;52.210;21.174;2023-02-28T00:21:45;40.60;;;22.58;;
18407;SDS011;9330;52.210;21.174;2023-02-28T00:24:14;39.33;;;21.45;;
18407;SDS011;9330;52.210;21.174;2023-02-28T00:26:47;35.87;;;21.27;;
18407;SDS011;9330;52.210;21.174;2023-02-28T00:29:15;35.75;;;21.52;;
18407;SDS011;9330;52.210;21.174;2023-02-28T00:31:44;38.15;;;21.65;;
18407;SDS011;9330;52.210;21.174;2023-02-28T00:34:29;41.72;;;23.50;;
18407;SDS011;9330;52.210;21.174;2023-02-28T00:36:57;43.37;;;23.60;;
18407;SDS011;9330;52.210;21.174;2023-02-28T00:39:24;40.23;;;22.80;;
18407;SDS011;9330;52.210;21.174;2023-02-28T00:41:54;42.85;;;22.75;;
18407;SDS011;9330;52.210;21.174;2023-02-28T00:44:30;38.88;;;22.85;;
18407;SDS011;9330;52.210;21.174;2023-02-28T00:46:58;40.75;;;22.92;;
18407;SDS011;9330;52.210;21.174;2023-02-28T00:49:28;38.93;;;22.67;;
18407;SDS011;9330;52.210;21.174;2023-02-28T00:52:00;38.55;;;21.30;;
18407;SDS011;9330;52.210;21.174;2023-02-28T00:54:29;34.08;;;20.08;;
18407;SDS011;9330;52.210;21.174;2023-02-28T00:56:56;35.22;;;20.50;;
18407;SDS011;9330;52.210;21.174;2023-02-28T00:59:28;30.77;;;18.80;;
18407;SDS011;9330;52.210;21.174;2023-02-28T01:01:58;34.50;;;19.63;;
18407;SDS011;9330;52.210;21.174;2023-02-28T01:04:39;38.50;;;22.97;;
18407;SDS011;9330;52.210;21.174;2023-02-28T01:07:33;32.77;;;20.60;;
18407;SDS011;9330;52.210;21.174;2023-02-28T01:10:07;35.50;;;21.77;;
18407;SDS011;9330;52.210;21.174;2023-02-28T01:12:42;39.20;;;23.00;;
18407;SDS011;9330;52.210;21.174;2023-02-28T01:15:19;34.33;;;21.50;;
18407;SDS011;9330;52.210;21.174;2023-02-28T01:17:47;38.10;;;22.73;;
18407;SDS011;9330;52.210;21.174;2023-02-28T01:20:18;39.57;;;22.47;;
18407;SDS011;9330;52.210;21.174;2023-02-28T01:22:48;35.53;;;22.57;;
18407;SDS011;9330;52.210;21.174;2023-02-28T01:25:16;39.80;;;22.93;;
18407;SDS011;9330;52.210;21.174;2023-02-28T01:27:47;36.20;;;21.67;;
18407;SDS011;9330;52.210;21.174;2023-02-28T01:30:29;32.43;;;20.03;;
18407;SDS011;9330;52.210;21.174;2023-02-28T01:33:05;32.60;;;19.53;;
18407;SDS011;9330;52.210;21.174;2023-02-28T01:38:27;30.53;;;19.57;;
18407;SDS011;9330;52.210;21.174;2023-02-28T01:40:59;31.83;;;19.27;;
18407;SDS011;9330;52.210;21.174;2023-02-28T01:43:27;31.50;;;20.00;;
18407;SDS011;9330;52.210;21.174;2023-02-28T01:45:58;34.60;;;21.43;;
18407;SDS011;9330;52.210;21.174;2023-02-28T01:48:29;39.27;;;22.83;;
18407;SDS011;9330;52.210;21.174;2023-02-28T01:51:00;37.57;;;22.30;;
18407;SDS011;9330;52.210;21.174;2023-02-28T01:53:33;39.67;;;23.33;;
18407;SDS011;9330;52.210;21.174;2023-02-28T01:56:08;41.37;;;24.37;;
18407;SDS011;9330;52.210;21.174;2023-02-28T01:58:46;44.40;;;24.07;;
18407;SDS011;9330;52.210;21.174;2023-02-28T02:01:13;45.57;;;25.43;;
18407;SDS011;9330;52.210;21.174;2023-02-28T02:06:36;46.00;;;24.93;;
18407;SDS011;9330;52.210;21.174;2023-02-28T02:09:12;48.23;;;25.47;;
18407;SDS011;9330;52.210;21.174;2023-02-28T02:11:39;43.43;;;25.57;;
18407;SDS011;9330;52.210;21.174;2023-02-28T02:14:18;44.17;;;25.87;;
18407;SDS011;9330;52.210;21.174;2023-02-28T02:17:18;46.60;;;25.63;;
18407;SDS011;9330;52.210;21.174;2023-02-28T02:20:08;41.57;;;23.87;;
18407;SDS011;9330;52.210;21.174;2023-02-28T02:28:52;51.03;;;26.67;;
18407;SDS011;9330;52.210;21.174;2023-02-28T02:32:14;47.17;;;26.17;;
18407;SDS011;9330;52.210;21.174;2023-02-28T02:35:14;44.37;;;25.43;;
18407;SDS011;9330;52.210;21.174;2023-02-28T02:37:57;43.70;;;25.40;;
18407;SDS011;9330;52.210;21.174;2023-02-28T02:40:36;47.37;;;24.80;;
18407;SDS011;9330;52.210;21.174;2023-02-28T02:43:11;41.80;;;25.30;;
18407;SDS011;9330;52.210;21.174;2023-02-28T02:45:45;40.87;;;23.37;;
18407;SDS011;9330;52.210;21.174;2023-02-28T02:51:09;46.07;;;25.63;;
18407;SDS011;9330;52.210;21.174;2023-02-28T02:54:08;47.50;;;26.70;;
18407;SDS011;9330;52.210;21.174;2023-02-28T02:56:45;44.03;;;26.07;;
18407;SDS011;9330;52.210;21.174;2023-02-28T02:59:33;45.57;;;26.47;;
18407;SDS011;9330;52.210;21.174;2023-02-28T03:02:18;47.07;;;26.03;;
18407;SDS011;9330;52.210;21.174;2023-02-28T03:04:56;46.50;;;27.47;;
18407;SDS011;9330;52.210;21.174;2023-02-28T03:07:47;48.10;;;27.83;;
18407;SDS011;9330;52.210;21.174;2023-02-28T03:10:26;50.53;;;28.57;;
18407;SDS011;9330;52.210;21.174;2023-02-28T03:13:29;51.60;;;29.00;;
18407;SDS011;9330;52.210;21.174;2023-02-28T03:16:26;55.97;;;29.17;;
18407;SDS011;9330;52.210;21.174;2023-02-28T03:19:28;50.13;;;28.40;;
18407;SDS011;9330;52.210;21.174;2023-02-28T03:22:19;49.37;;;27.73;;
18407;SDS011;9330;52.210;21.174;2023-02-28T03:28:08;53.27;;;29.07;;
18407;SDS011;9330;52.210;21.174;2023-02-28T03:30:41;55.83;;;30.07;;
18407;SDS011;9330;52.210;21.174;2023-02-28T03:33:20;51.13;;;28.10;;
18407;SDS011;9330;52.210;21.174;2023-02-28T03:35:51;53.63;;;29.57;;
18407;SDS011;9330;52.210;21.174;2023-02-28T03:38:33;54.87;;;30.87;;
18407;SDS011;9330;52.210;21.174;2023-02-28T03:41:10;51.33;;;29.37;;
18407;SDS011;9330;52.210;21.174;2023-02-28T03:43:48;60.23;;;31.47;;
18407;SDS011;9330;52.210;21.174;2023-02-28T03:46:26;56.63;;;31.23;;
18407;SDS011;9330;52.210;21.174;2023-02-28T03:49:12;55.93;;;31.43;;
18407;SDS011;9330;52.210;21.174;2023-02-28T03:52:17;55.97;;;31.00;;
18407;SDS011;9330;52.210;21.174;2023-02-28T03:54:54;56.67;;;30.77;;
18407;SDS011;9330;52.210;21.174;2023-02-28T03:57:43;57.33;;;29.63;;
18407;SDS011;9330;52.210;21.174;2023-02-28T04:00:27;56.10;;;31.07;;
18407;SDS011;9330;52.210;21.174;2023-02-28T04:03:02;51.27;;;28.67;;
18407;SDS011;9330;52.210;21.174;2023-02-28T04:05:43;57.10;;;31.77;;
18407;SDS011;9330;52.210;21.174;2023-02-28T04:08:30;59.47;;;30.77;;
18407;SDS011;9330;52.210;21.174;2023-02-28T04:11:07;57.03;;;31.87;;
18407;SDS011;9330;52.210;21.174;2023-02-28T04:13:56;54.43;;;31.03;;
18407;SDS011;9330;52.210;21.174;2023-02-28T04:16:38;56.53;;;32.10;;
18407;SDS011;9330;52.210;21.174;2023-02-28T04:19:10;59.33;;;31.57;;
18407;SDS011;9330;52.210;21.174;2023-02-28T04:21:58;56.10;;;32.87;;
18407;SDS011;9330;52.210;21.174;2023-02-28T04:24:47;64.77;;;33.50;;
18407;SDS011;9330;52.210;21.174;2023-02-28T04:27:27;59.27;;;31.80;;
18407;SDS011;9330;52.210;21.174;2023-02-28T04:30:09;60.80;;;34.23;;
18407;SDS011;9330;52.210;21.174;2023-02-28T04:32:46;61.43;;;32.80;;
18407;SDS011;9330;52.210;21.174;2023-02-28T04:38:38;62.23;;;34.37;;
18407;SDS011;9330;52.210;21.174;2023-02-28T04:41:12;63.03;;;34.13;;
18407;SDS011;9330;52.210;21.174;2023-02-28T04:43:50;55.80;;;32.60;;
18407;SDS011;9330;52.210;21.174;2023-02-28T04:46:31;59.47;;;31.80;;
18407;SDS011;9330;52.210;21.174;2023-02-28T04:49:06;65.60;;;33.33;;
18407;SDS011;9330;52.210;21.174;2023-02-28T04:57:57;60.50;;;33.60;;
18407;SDS011;9330;52.210;21.174;2023-02-28T05:04:42;56.17;;;31.47;;
18407;SDS011;9330;52.210;21.174;2023-02-28T05:07:26;59.73;;;31.50;;
18407;SDS011;9330;52.210;21.174;2023-02-28T05:10:10;58.80;;;32.57;;
18407;SDS011;9330;52.210;21.174;2023-02-28T05:13:00;66.57;;;35.60;;
18407;SDS011;9330;52.210;21.174;2023-02-28T05:15:33;60.57;;;33.93;;
18407;SDS011;9330;52.210;21.174;2023-02-28T05:18:03;66.03;;;34.20;;
18407;SDS011;9330;52.210;21.174;2023-02-28T05:21:02;64.10;;;32.70;;
18407;SDS011;9330;52.210;21.174;2023-02-28T05:23:54;66.00;;;34.47;;
18407;SDS011;9330;52.210;21.174;2023-02-28T05:26:28;68.17;;;34.07;;
18407;SDS011;9330;52.210;21.174;2023-02-28T05:29:00;57.77;;;32.33;;
18407;SDS011;9330;52.210;21.174;2023-02-28T05:31:44;64.87;;;34.47;;
18407;SDS011;9330;52.210;21.174;2023-02-28T05:34:25;63.23;;;33.40;;
18407;SDS011;9330;52.210;21.174;2023-02-28T05:39:59;64.77;;;34.70;;
18407;SDS011;9330;52.210;21.174;2023-02-28T05:42:32;66.30;;;35.20;;
18407;SDS011;9330;52.210;21.174;2023-02-28T05:48:01;67.03;;;36.40;;
18407;SDS011;9330;52.210;21.174;2023-02-28T05:50:34;66.83;;;35.67;;
18407;SDS011;9330;52.210;21.174;2023-02-28T05:53:23;66.30;;;36.90;;
18407;SDS011;9330;52.210;21.174;2023-02-28T05:56:11;64.27;;;36.67;;
18407;SDS011;9330;52.210;21.174;2023-02-28T05:58:43;75.43;;;39.10;;
18407;SDS011;9330;52.210;21.174;2023-02-28T06:01:25;70.60;;;37.17;;
18407;SDS011;9330;52.210;21.174;2023-02-28T06:04:20;70.20;;;38.03;;
18407;SDS011;9330;52.210;21.174;2023-02-28T06:07:03;64.90;;;35.83;;
18407;SDS011;9330;52.210;21.174;2023-02-28T06:09:47;75.07;;;39.50;;
18407;SDS011;9330;52.210;21.174;2023-02-28T06:12:18;68.57;;;37.50;;
18407;SDS011;9330;52.210;21.174;2023-02-28T06:14:45;72.17;;;39.63;;
18407;SDS011;9330;52.210;21.174;2023-02-28T06:17:30;72.30;;;38.57;;
18407;SDS011;9330;52.210;21.174;2023-02-28T06:20:00;76.43;;;39.90;;
18407;SDS011;9330;52.210;21.174;2023-02-28T06:22:39;73.33;;;39.07;;
18407;SDS011;9330;52.210;21.174;2023-02-28T06:25:11;73.70;;;39.90;;
18407;SDS011;9330;52.210;21.174;2023-02-28T06:30:29;71.23;;;40.20;;
18407;SDS011;9330;52.210;21.174;2023-02-28T06:32:59;81.03;;;42.10;;
18407;SDS011;9330;52.210;21.174;2023-02-28T06:35:30;82.50;;;42.77;;
18407;SDS011;9330;52.210;21.174;2023-02-28T06:38:03;76.47;;;41.40;;
18407;SDS011;9330;52.210;21.174;2023-02-28T06:40:34;80.40;;;40.93;;
18407;SDS011;9330;52.210;21.174;2023-02-28T06:43:09;79.00;;;41.40;;
18407;SDS011;9330;52.210;21.174;2023-02-28T06:45:40;78.93;;;40.70;;
18407;SDS011;9330;52.210;21.174;2023-02-28T06:48:19;75.88;;;39.72;;
18407;SDS011;9330;52.210;21.174;2023-02-28T06:50:49;75.70;;;40.70;;
18407;SDS011;9330;52.210;21.174;2023-02-28T06:53:41;68.47;;;37.37;;
18407;SDS011;9330;52.210;21.174;2023-02-28T06:56:17;63.60;;;35.07;;
18407;SDS011;9330;52.210;21.174;2023-02-28T06:58:47;64.20;;;34.10;;
18407;SDS011;9330;52.210;21.174;2023-02-28T07:01:19;59.00;;;33.43;;
18407;SDS011;9330;52.210;21.174;2023-02-28T07:03:47;54.03;;;31.87;;
18407;SDS011;9330;52.210;21.174;2023-02-28T07:06:17;52.08;;;30.60;;
18407;SDS011;9330;52.210;21.174;2023-02-28T07:08:47;54.50;;;29.70;;
18407;SDS011;9330;52.210;21.174;2023-02-28T07:11:14;52.55;;;30.23;;
18407;SDS011;9330;52.210;21.174;2023-02-28T07:13:42;50.95;;;29.15;;
18407;SDS011;9330;52.210;21.174;2023-02-28T07:16:11;49.03;;;29.58;;
18407;SDS011;9330;52.210;21.174;2023-02-28T07:18:38;48.23;;;28.17;;
18407;SDS011;9330;52.210;21.174;2023-02-28T07:21:06;42.40;;;24.00;;
18407;SDS011;9330;52.210;21.174;2023-02-28T07:23:35;41.13;;;21.83;;
18407;SDS011;9330;52.210;21.174;2023-02-28T07:26:06;36.13;;;20.70;;
18407;SDS011;9330;52.210;21.174;2023-02-28T07:28:37;33.05;;;20.17;;
18407;SDS011;9330;52.210;21.174;2023-02-28T07:31:05;32.88;;;18.23;;
18407;SDS011;9330;52.210;21.174;2023-02-28T07:33:34;29.48;;;17.35;;
18407;SDS011;9330;52.210;21.174;2023-02-28T07:36:01;21.63;;;13.48;;
18407;SDS011;9330;52.210;21.174;2023-02-28T07:38:30;18.15;;;11.90;;
18407;SDS011;9330;52.210;21.174;2023-02-28T07:40:59;20.48;;;12.55;;
18407;SDS011;9330;52.210;21.174;2023-02-28T07:43:26;20.70;;;12.65;;
18407;SDS011;9330;52.210;21.174;2023-02-28T07:45:53;14.20;;;9.20;;
18407;SDS011;9330;52.210;21.174;2023-02-28T07:48:20;10.75;;;8.02;;
18407;SDS011;9330;52.210;21.174;2023-02-28T07:50:54;12.85;;;7.90;;
18407;SDS011;9330;52.210;21.174;2023-02-28T07:53:21;15.15;;;9.20;;
18407;SDS011;9330;52.210;21.174;2023-02-28T07:55:48;8.68;;;6.22;;
18407;SDS011;9330;52.210;21.174;2023-02-28T07:58:15;8.63;;;5.95;;
18407;SDS011;9330;52.210;21.174;2023-02-28T08:00:42;8.13;;;5.45;;
18407;SDS011;9330;52.210;21.174;2023-02-28T08:03:09;7.20;;;4.75;;
18407;SDS011;9330;52.210;21.174;2023-02-28T08:05:38;10.10;;;6.20;;
18407;SDS011;9330;52.210;21.174;2023-02-28T08:08:06;9.55;;;6.35;;
18407;SDS011;9330;52.210;21.174;2023-02-28T08:10:34;9.75;;;6.18;;
18407;SDS011;9330;52.210;21.174;2023-02-28T08:13:01;7.43;;;5.57;;
18407;SDS011;9330;52.210;21.174;2023-02-28T08:15:27;9.35;;;6.00;;
18407;SDS011;9330;52.210;21.174;2023-02-28T08:17:55;10.45;;;6.22;;
18407;SDS011;9330;52.210;21.174;2023-02-28T08:20:22;9.82;;;6.32;;
18407;SDS011;9330;52.210;21.174;2023-02-28T08:22:49;9.45;;;6.50;;
18407;SDS011;9330;52.210;21.174;2023-02-28T08:25:18;9.07;;;6.15;;
18407;SDS011;9330;52.210;21.174;2023-02-28T08:27:45;12.55;;;5.95;;
18407;SDS011;9330;52.210;21.174;2023-02-28T08:30:12;7.50;;;5.28;;
18407;SDS011;9330;52.210;21.174;2023-02-28T08:32:40;9.48;;;6.18;;
18407;SDS011;9330;52.210;21.174;2023-02-28T08:35:07;11.57;;;6.53;;
18407;SDS011;9330;52.210;21.174;2023-02-28T08:37:35;8.57;;;6.30;;
18407;SDS011;9330;52.210;21.174;2023-02-28T08:40:05;11.07;;;6.25;;
18407;SDS011;9330;52.210;21.174;2023-02-28T08:42:40;8.15;;;6.22;;
18407;SDS011;9330;52.210;21.174;2023-02-28T08:45:10;9.55;;;6.55;;
18407;SDS011;9330;52.210;21.174;2023-02-28T08:47:37;9.18;;;6.50;;
18407;SDS011;9330;52.210;21.174;2023-02-28T08:50:18;10.95;;;6.78;;
18407;SDS011;9330;52.210;21.174;2023-02-28T08:52:46;10.18;;;6.50;;
18407;SDS011;9330;52.210;21.174;2023-02-28T08:55:15;10.45;;;7.03;;
18407;SDS011;9330;52.210;21.174;2023-02-28T08:57:47;8.05;;;6.40;;
18407;SDS011;9330;52.210;21.174;2023-02-28T09:00:30;9.80;;;6.43;;
18407;SDS011;9330;52.210;21.174;2023-02-28T09:03:05;9.45;;;6.55;;
18407;SDS011;9330;52.210;21.174;2023-02-28T09:05:32;11.35;;;6.15;;
18407;SDS011;9330;52.210;21.174;2023-02-28T09:08:01;12.48;;;6.43;;
18407;SDS011;9330;52.210;21.174;2023-02-28T09:10:34;11.50;;;7.35;;
18407;SDS011;9330;52.210;21.174;2023-02-28T09:13:03;10.40;;;7.18;;
18407;SDS011;9330;52.210;21.174;2023-02-28T09:15:32;11.95;;;7.00;;
18407;SDS011;9330;52.210;21.174;2023-02-28T09:18:07;7.93;;;6.40;;
18407;SDS011;9330;52.210;21.174;2023-02-28T09:20:33;9.20;;;6.45;;
18407;SDS011;9330;52.210;21.174;2023-02-28T09:23:03;8.40;;;6.22;;
18407;SDS011;9330;52.210;21.174;2023-02-28T09:25:30;8.48;;;6.70;;
18407;SDS011;9330;52.210;21.174;2023-02-28T09:27:57;11.82;;;6.82;;
18407;SDS011;9330;52.210;21.174;2023-02-28T09:30:25;9.48;;;7.35;;
18407;SDS011;9330;52.210;21.174;2023-02-28T09:32:52;11.25;;;7.70;;
18407;SDS011;9330;52.210;21.174;2023-02-28T09:35:19;9.32;;;7.05;;
18407;SDS011;9330;52.210;21.174;2023-02-28T09:37:47;10.32;;;7.70;;
18407;SDS011;9330;52.210;21.174;2023-02-28T09:40:15;11.35;;;7.13;;
18407;SDS011;9330;52.210;21.174;2023-02-28T09:42:46;11.20;;;7.45;;
18407;SDS011;9330;52.210;21.174;2023-02-28T09:45:21;11.05;;;7.00;;
18407;SDS011;9330;52.210;21.174;2023-02-28T09:47:56;10.35;;;8.15;;
18407;SDS011;9330;52.210;21.174;2023-02-28T09:50:32;9.90;;;7.13;;
18407;SDS011;9330;52.210;21.174;2023-02-28T09:53:03;9.55;;;7.10;;
18407;SDS011;9330;52.210;21.174;2023-02-28T09:55:42;11.50;;;7.88;;
18407;SDS011;9330;52.210;21.174;2023-02-28T09:58:16;11.88;;;7.60;;
18407;SDS011;9330;52.210;21.174;2023-02-28T10:00:53;11.27;;;7.28;;
18407;SDS011;9330;52.210;21.174;2023-02-28T10:03:28;13.07;;;8.07;;
18407;SDS011;9330;52.210;21.174;2023-02-28T10:05:59;9.18;;;7.15;;
18407;SDS011;9330;52.210;21.174;2023-02-28T10:08:42;10.50;;;6.88;;
18407;SDS011;9330;52.210;21.174;2023-02-28T10:11:18;12.73;;;7.07;;
18407;SDS011;9330;52.210;21.174;2023-02-28T10:13:52;9.18;;;7.05;;
18407;SDS011;9330;52.210;21.174;2023-02-28T10:19:46;9.38;;;7.03;;
18407;SDS011;9330;52.210;21.174;2023-02-28T10:22:23;10.80;;;7.35;;
18407;SDS011;9330;52.210;21.174;2023-02-28T10:24:55;11.77;;;7.65;;
18407;SDS011;9330;52.210;21.174;2023-02-28T10:27:37;9.38;;;7.68;;
18407;SDS011;9330;52.210;21.174;2023-02-28T10:30:05;10.57;;;7.38;;
18407;SDS011;9330;52.210;21.174;2023-02-28T10:32:38;10.90;;;7.95;;
18407;SDS011;9330;52.210;21.174;2023-02-28T10:35:17;9.57;;;7.32;;
18407;SDS011;9330;52.210;21.174;2023-02-28T10:37:50;10.93;;;8.18;;
18407;SDS011;9330;52.210;21.174;2023-02-28T10:40:35;11.52;;;8.30;;
18407;SDS011;9330;52.210;21.174;2023-02-28T10:43:23;12.10;;;9.13;;
18407;SDS011;9330;52.210;21.174;2023-02-28T10:46:10;10.70;;;7.80;;
18407;SDS011;9330;52.210;21.174;2023-02-28T10:49:00;12.32;;;8.25;;
18407;SDS011;9330;52.210;21.174;2023-02-28T10:54:30;11.55;;;8.55;;
18407;SDS011;9330;52.210;21.174;2023-02-28T10:57:07;15.70;;;8.57;;
18407;SDS011;9330;52.210;21.174;2023-02-28T10:59:50;13.10;;;8.63;;
18407;SDS011;9330;52.210;21.174;2023-02-28T11:02:32;13.40;;;8.07;;
18407;SDS011;9330;52.210;21.174;2023-02-28T11:05:23;11.48;;;9.00;;
18407;SDS011;9330;52.210;21.174;2023-02-28T11:11:48;12.23;;;7.88;;
18407;SDS011;9330;52.210;21.174;2023-02-28T11:14:22;10.38;;;8.30;;
18407;SDS011;9330;52.210;21.174;2023-02-28T11:17:19;13.68;;;8.23;;
18407;SDS011;9330;52.210;21.174;2023-02-28T11:22:24;11.32;;;7.72;;
18407;SDS011;9330;52.210;21.174;2023-02-28T11:25:06;10.23;;;8.40;;
18407;SDS011;9330;52.210;21.174;2023-02-28T11:27:54;10.48;;;8.80;;
18407;SDS011;9330;52.210;21.174;2023-02-28T11:30:30;10.48;;;8.68;;
18407;SDS011;9330;52.210;21.174;2023-02-28T11:33:21;12.88;;;9.13;;
18407;SDS011;9330;52.210;21.174;2023-02-28T11:38:58;13.07;;;8.48;;
18407;SDS011;9330;52.210;21.174;2023-02-28T11:41:55;16.80;;;9.48;;
18407;SDS011;9330;52.210;21.174;2023-02-28T12:04:34;17.27;;;10.25;;
18407;SDS011;9330;52.210;21.174;2023-02-28T12:07:13;20.17;;;9.52;;
18407;SDS011;9330;52.210;21.174;2023-02-28T12:09:53;16.88;;;10.45;;
18407;SDS011;9330;52.210;21.174;2023-02-28T12:12:33;11.57;;;9.35;;
18407;SDS011;9330;52.210;21.174;2023-02-28T12:15:16;14.05;;;10.20;;
18407;SDS011;9330;52.210;21.174;2023-02-28T12:20:59;14.18;;;10.13;;
18407;SDS011;9330;52.210;21.174;2023-02-28T12:23:42;12.60;;;9.98;;
18407;SDS011;9330;52.210;21.174;2023-02-28T12:26:27;14.32;;;10.18;;
18407;SDS011;9330;52.210;21.174;2023-02-28T12:29:13;13.68;;;10.50;;
18407;SDS011;9330;52.210;21.174;2023-02-28T12:31:47;13.13;;;9.57;;
18407;SDS011;9330;52.210;21.174;2023-02-28T12:34:21;11.32;;;9.40;;
18407;SDS011;9330;52.210;21.174;2023-02-28T12:36:52;14.68;;;10.35;;
18407;SDS011;9330;52.210;21.174;2023-02-28T12:39:23;13.75;;;9.57;;
18407;SDS011;9330;52.210;21.174;2023-02-28T12:41:56;12.95;;;9.68;;
18407;SDS011;9330;52.210;21.174;2023-02-28T12:44:30;13.30;;;9.60;;
18407;SDS011;9330;52.210;21.174;2023-02-28T12:47:02;14.10;;;10.02;;
18407;SDS011;9330;52.210;21.174;2023-02-28T12:49:33;14.18;;;10.43;;
18407;SDS011;9330;52.210;21.174;2023-02-28T12:52:03;11.40;;;9.57;;
18407;SDS011;9330;52.210;21.174;2023-02-28T12:54:35;13.48;;;10.40;;
18407;SDS011;9330;52.210;21.174;2023-02-28T12:57:09;11.85;;;9.60;;
18407;SDS011;9330;52.210;21.174;2023-02-28T12:59:41;14.90;;;10.23;;
18407;SDS011;9330;52.210;21.174;2023-02-28T13:02:29;15.95;;;9.57;;
18407;SDS011;9330;52.210;21.174;2023-02-28T13:05:28;13.88;;;9.63;;
18407;SDS011;9330;52.210;21.174;2023-02-28T13:11:29;14.95;;;10.27;;
18407;SDS011;9330;52.210;21.174;2023-02-28T13:14:00;15.85;;;10.63;;
18407;SDS011;9330;52.210;21.174;2023-02-28T13:16:32;14.00;;;9.60;;
18407;SDS011;9330;52.210;21.174;2023-02-28T13:19:17;12.40;;;10.18;;
18407;SDS011;9330;52.210;21.174;2023-02-28T13:21:47;13.60;;;9.73;;
18407;SDS011;9330;52.210;21.174;2023-02-28T13:30:02;12.43;;;9.95;;
18407;SDS011;9330;52.210;21.174;2023-02-28T13:36:09;13.02;;;9.85;;
18407;SDS011;9330;52.210;21.174;2023-02-28T13:38:50;14.07;;;9.25;;
18407;SDS011;9330;52.210;21.174;2023-02-28T13:44:21;13.90;;;9.70;;
18407;SDS011;9330;52.210;21.174;2023-02-28T13:49:47;16.13;;;10.50;;
18407;SDS011;9330;52.210;21.174;2023-02-28T13:52:17;11.38;;;9.23;;
18407;SDS011;9330;52.210;21.174;2023-02-28T13:54:55;12.55;;;10.13;;
18407;SDS011;9330;52.210;21.174;2023-02-28T13:57:42;13.73;;;9.57;;
18407;SDS011;9330;52.210;21.174;2023-02-28T14:00:21;13.10;;;9.13;;
18407;SDS011;9330;52.210;21.174;2023-02-28T14:03:05;11.82;;;8.50;;
18407;SDS011;9330;52.210;21.174;2023-02-28T14:08:50;12.68;;;9.40;;
18407;SDS011;9330;52.210;21.174;2023-02-28T14:11:27;14.77;;;10.35;;
18407;SDS011;9330;52.210;21.174;2023-02-28T14:13:57;12.90;;;9.45;;
18407;SDS011;9330;52.210;21.174;2023-02-28T14:16:25;13.07;;;10.02;;
18407;SDS011;9330;52.210;21.174;2023-02-28T14:18:56;13.85;;;10.25;;
18407;SDS011;9330;52.210;21.174;2023-02-28T14:21:25;14.77;;;10.45;;
18407;SDS011;9330;52.210;21.174;2023-02-28T14:24:09;15.50;;;10.15;;
18407;SDS011;9330;52.210;21.174;2023-02-28T14:26:58;12.50;;;9.70;;
18407;SDS011;9330;52.210;21.174;2023-02-28T14:29:43;12.65;;;9.45;;
18407;SDS011;9330;52.210;21.174;2023-02-28T14:32:31;15.50;;;10.52;;
18407;SDS011;9330;52.210;21.174;2023-02-28T14:35:02;12.27;;;9.50;;
18407;SDS011;9330;52.210;21.174;2023-02-28T14:37:39;14.00;;;9.75;;
18407;SDS011;9330;52.210;21.174;2023-02-28T14:40:11;12.77;;;9.60;;
18407;SDS011;9330;52.210;21.174;2023-02-28T14:42:46;14.85;;;9.75;;
18407;SDS011;9330;52.210;21.174;2023-02-28T14:45:18;13.82;;;9.32;;
18407;SDS011;9330;52.210;21.174;2023-02-28T14:47:45;14.95;;;10.02;;
18407;SDS011;9330;52.210;21.174;2023-02-28T14:50:17;16.75;;;9.68;;
18407;SDS011;9330;52.210;21.174;2023-02-28T14:52:45;14.07;;;9.55;;
18407;SDS011;9330;52.210;21.174;2023-02-28T14:55:13;13.55;;;9.95;;
18407;SDS011;9330;52.210;21.174;2023-02-28T14:57:51;15.48;;;9.88;;
18407;SDS011;9330;52.210;21.174;2023-02-28T15:00:21;14.88;;;9.85;;
18407;SDS011;9330;52.210;21.174;2023-02-28T15:02:50;12.48;;;9.68;;
18407;SDS011;9330;52.210;21.174;2023-02-28T15:05:26;14.65;;;9.50;;
18407;SDS011;9330;52.210;21.174;2023-02-28T15:08:02;12.75;;;8.82;;
18407;SDS011;9330;52.210;21.174;2023-02-28T15:10:38;14.75;;;9.07;;
18407;SDS011;9330;52.210;21.174;2023-02-28T15:13:11;16.38;;;9.65;;
18407;SDS011;9330;52.210;21.174;2023-02-28T15:15:41;13.38;;;9.60;;
18407;SDS011;9330;52.210;21.174;2023-02-28T15:18:14;19.48;;;10.85;;
18407;SDS011;9330;52.210;21.174;2023-02-28T15:20:47;17.10;;;10.23;;
18407;SDS011;9330;52.210;21.174;2023-02-28T15:23:14;16.20;;;9.68;;
18407;SDS011;9330;52.210;21.174;2023-02-28T15:25:42;14.30;;;10.00;;
18407;SDS011;9330;52.210;21.174;2023-02-28T15:28:12;13.82;;;9.50;;
18407;SDS011;9330;52.210;21.174;2023-02-28T15:30:50;16.80;;;9.32;;
18407;SDS011;9330;52.210;21.174;2023-02-28T15:33:19;15.07;;;9.38;;
18407;SDS011;9330;52.210;21.174;2023-02-28T15:35:48;12.45;;;8.93;;
18407;SDS011;9330;52.210;21.174;2023-02-28T15:38:18;17.23;;;9.73;;
18407;SDS011;9330;52.210;21.174;2023-02-28T15:40:50;13.45;;;9.43;;
18407;SDS011;9330;52.210;21.174;2023-02-28T15:43:26;13.10;;;8.10;;
18407;SDS011;9330;52.210;21.174;2023-02-28T15:45:58;13.73;;;9.30;;
18407;SDS011;9330;52.210;21.174;2023-02-28T15:48:28;14.93;;;9.23;;
18407;SDS011;9330;52.210;21.174;2023-02-28T15:50:57;12.88;;;9.75;;
18407;SDS011;9330;52.210;21.174;2023-02-28T15:53:29;16.23;;;10.90;;
18407;SDS011;9330;52.210;21.174;2023-02-28T15:55:59;14.45;;;10.13;;
18407;SDS011;9330;52.210;21.174;2023-02-28T15:58:29;11.98;;;8.32;;
18407;SDS011;9330;52.210;21.174;2023-02-28T16:03:45;16.20;;;8.98;;
18407;SDS011;9330;52.210;21.174;2023-02-28T16:06:30;12.57;;;9.02;;
18407;SDS011;9330;52.210;21.174;2023-02-28T16:09:00;14.00;;;9.27;;
18407;SDS011;9330;52.210;21.174;2023-02-28T16:11:27;14.95;;;9.00;;
18407;SDS011;9330;52.210;21.174;2023-02-28T16:13:56;13.82;;;8.70;;
18407;SDS011;9330;52.210;21.174;2023-02-28T16:16:24;16.45;;;8.90;;
18407;SDS011;9330;52.210;21.174;2023-02-28T16:18:52;10.65;;;8.77;;
18407;SDS011;9330;52.210;21.174;2023-02-28T16:21:19;12.80;;;9.02;;
18407;SDS011;9330;52.210;21.174;2023-02-28T16:23:46;15.50;;;9.00;;
18407;SDS011;9330;52.210;21.174;2023-02-28T16:26:16;14.68;;;9.05;;
18407;SDS011;9330;52.210;21.174;2023-02-28T16:28:47;14.30;;;9.50;;
18407;SDS011;9330;52.210;21.174;2023-02-28T16:31:16;16.67;;;10.20;;
18407;SDS011;9330;52.210;21.174;2023-02-28T16:33:43;13.98;;;10.18;;
18407;SDS011;9330;52.210;21.174;2023-02-28T16:36:13;17.23;;;10.82;;
18407;SDS011;9330;52.210;21.174;2023-02-28T16:38:41;14.35;;;10.52;;
18407;SDS011;9330;52.210;21.174;2023-02-28T16:41:08;17.45;;;11.48;;
18407;SDS011;9330;52.210;21.174;2023-02-28T16:43:43;18.90;;;11.68;;
18407;SDS011;9330;52.210;21.174;2023-02-28T16:46:12;20.83;;;12.05;;
18407;SDS011;9330;52.210;21.174;2023-02-28T16:48:40;18.40;;;11.55;;
18407;SDS011;9330;52.210;21.174;2023-02-28T16:51:08;19.85;;;12.55;;
18407;SDS011;9330;52.210;21.174;2023-02-28T16:53:37;21.20;;;12.20;;
18407;SDS011;9330;52.210;21.174;2023-02-28T16:56:05;19.58;;;11.63;;
18407;SDS011;9330;52.210;21.174;2023-02-28T16:58:33;16.95;;;11.65;;